sensor_id;sensor_type;location;lat;lon;timestamp;P1;durP1;ratioP1;P2;durP2;ratioP2
80539;SDS011;69869;48.036;15.780;2023-06-10T00:00:34;5.05;;;1.92;;
80539;SDS011;69869;48.036;15.780;2023-06-10T00:02:59;7.05;;;1.98;;
80539;SDS011;69869;48.036;15.780;2023-06-10T00:05:25;4.70;;;1.80;;
80539;SDS011;69869;48.036;15.780;2023-06-10T00:07:55;4.07;;;1.70;;
80539;SDS011;69869;48.036;15.780;2023-06-10T00:10:21;3.38;;;1.88;;
80539;SDS011;69869;48.036;15.780;2023-06-10T00:12:47;3.15;;;1.80;;
80539;SDS011;69869;48.036;15.780;2023-06-10T00:15:13;3.75;;;1.95;;
80539;SDS011;69869;48.036;15.780;2023-06-10T00:17:38;4.47;;;1.90;;
80539;SDS011;69869;48.036;15.780;2023-06-10T00:20:06;6.15;;;1.70;;
80539;SDS011;69869;48.036;15.780;2023-06-10T00:22:34;5.80;;;1.80;;
80539;SDS011;69869;48.036;15.780;2023-06-10T00:24:59;6.32;;;1.92;;
80539;SDS011;69869;48.036;15.780;2023-06-10T00:27:25;7.88;;;1.80;;
80539;SDS011;69869;48.036;15.780;2023-06-10T00:29:56;5.15;;;1.83;;
80539;SDS011;69869;48.036;15.780;2023-06-10T00:32:22;2.97;;;1.77;;
80539;SDS011;69869;48.036;15.780;2023-06-10T00:34:48;4.38;;;1.60;;
80539;SDS011;69869;48.036;15.780;2023-06-10T00:37:13;3.30;;;1.75;;
80539;SDS011;69869;48.036;15.780;2023-06-10T00:39:39;3.78;;;1.73;;
80539;SDS011;69869;48.036;15.780;2023-06-10T00:42:05;3.10;;;1.63;;
80539;SDS011;69869;48.036;15.780;2023-06-10T00:44:32;3.33;;;2.00;;
80539;SDS011;69869;48.036;15.780;2023-06-10T00:46:57;3.03;;;1.52;;
80539;SDS011;69869;48.036;15.780;2023-06-10T00:49:23;3.90;;;1.70;;
80539;SDS011;69869;48.036;15.780;2023-06-10T00:51:50;3.75;;;1.80;;
80539;SDS011;69869;48.036;15.780;2023-06-10T00:54:17;2.60;;;1.65;;
80539;SDS011;69869;48.036;15.780;2023-06-10T00:56:43;3.67;;;1.65;;
80539;SDS011;69869;48.036;15.780;2023-06-10T00:59:09;3.08;;;1.70;;
80539;SDS011;69869;48.036;15.780;2023-06-10T01:01:34;4.32;;;1.90;;
80539;SDS011;69869;48.036;15.780;2023-06-10T01:04:02;3.47;;;1.60;;
80539;SDS011;69869;48.036;15.780;2023-06-10T01:09:06;2.45;;;1.60;;
80539;SDS011;69869;48.036;15.780;2023-06-10T01:11:43;3.75;;;1.77;;
80539;SDS011;69869;48.036;15.780;2023-06-10T01:14:15;1.80;;;1.60;;
80539;SDS011;69869;48.036;15.780;2023-06-10T01:16:41;2.80;;;1.70;;
80539;SDS011;69869;48.036;15.780;2023-06-10T01:19:07;2.78;;;1.70;;
80539;SDS011;69869;48.036;15.780;2023-06-10T01:21:33;1.85;;;1.45;;
80539;SDS011;69869;48.036;15.780;2023-06-10T01:23:58;2.92;;;1.60;;
80539;SDS011;69869;48.036;15.780;2023-06-10T01:26:25;2.67;;;1.45;;
80539;SDS011;69869;48.036;15.780;2023-06-10T01:29:14;3.63;;;1.60;;
80539;SDS011;69869;48.036;15.780;2023-06-10T01:31:58;3.58;;;1.67;;
80539;SDS011;69869;48.036;15.780;2023-06-10T01:34:36;3.67;;;1.52;;
80539;SDS011;69869;48.036;15.780;2023-06-10T01:37:07;8.50;;;1.85;;
80539;SDS011;69869;48.036;15.780;2023-06-10T01:39:34;12.88;;;2.13;;
80539;SDS011;69869;48.036;15.780;2023-06-10T01:42:00;10.65;;;2.30;;
80539;SDS011;69869;48.036;15.780;2023-06-10T01:44:27;7.85;;;2.20;;
80539;SDS011;69869;48.036;15.780;2023-06-10T01:46:53;8.00;;;2.22;;
80539;SDS011;69869;48.036;15.780;2023-06-10T01:49:18;7.28;;;2.20;;
80539;SDS011;69869;48.036;15.780;2023-06-10T01:51:44;8.45;;;2.50;;
80539;SDS011;69869;48.036;15.780;2023-06-10T01:54:09;9.10;;;2.55;;
80539;SDS011;69869;48.036;15.780;2023-06-10T01:56:35;6.82;;;2.60;;
80539;SDS011;69869;48.036;15.780;2023-06-10T01:59:01;3.38;;;2.42;;
80539;SDS011;69869;48.036;15.780;2023-06-10T02:01:26;4.55;;;2.40;;
80539;SDS011;69869;48.036;15.780;2023-06-10T02:03:52;7.97;;;2.13;;
80539;SDS011;69869;48.036;15.780;2023-06-10T02:06:20;4.93;;;2.45;;
80539;SDS011;69869;48.036;15.780;2023-06-10T02:08:46;3.13;;;2.30;;
80539;SDS011;69869;48.036;15.780;2023-06-10T02:11:11;4.80;;;2.15;;
80539;SDS011;69869;48.036;15.780;2023-06-10T02:13:40;4.15;;;2.70;;
80539;SDS011;69869;48.036;15.780;2023-06-10T02:16:05;3.60;;;2.83;;
80539;SDS011;69869;48.036;15.780;2023-06-10T02:18:31;3.90;;;2.72;;
80539;SDS011;69869;48.036;15.780;2023-06-10T02:20:58;3.25;;;2.25;;
80539;SDS011;69869;48.036;15.780;2023-06-10T02:23:24;2.80;;;2.55;;
80539;SDS011;69869;48.036;15.780;2023-06-10T02:25:49;4.65;;;2.55;;
80539;SDS011;69869;48.036;15.780;2023-06-10T02:28:15;3.85;;;2.42;;
80539;SDS011;69869;48.036;15.780;2023-06-10T02:30:41;2.78;;;2.53;;
80539;SDS011;69869;48.036;15.780;2023-06-10T02:33:07;2.75;;;2.55;;
80539;SDS011;69869;48.036;15.780;2023-06-10T02:35:36;3.85;;;2.70;;
80539;SDS011;69869;48.036;15.780;2023-06-10T02:38:05;2.72;;;2.50;;
80539;SDS011;69869;48.036;15.780;2023-06-10T02:40:30;2.75;;;2.55;;
80539;SDS011;69869;48.036;15.780;2023-06-10T02:42:56;3.22;;;2.47;;
80539;SDS011;69869;48.036;15.780;2023-06-10T02:45:23;5.25;;;2.40;;
80539;SDS011;69869;48.036;15.780;2023-06-10T02:47:49;9.35;;;2.60;;
80539;SDS011;69869;48.036;15.780;2023-06-10T02:50:14;9.23;;;2.70;;
80539;SDS011;69869;48.036;15.780;2023-06-10T02:52:40;9.52;;;2.60;;
80539;SDS011;69869;48.036;15.780;2023-06-10T02:55:06;4.13;;;2.42;;
80539;SDS011;69869;48.036;15.780;2023-06-10T02:57:32;10.48;;;2.70;;
80539;SDS011;69869;48.036;15.780;2023-06-10T02:59:58;6.22;;;2.35;;
80539;SDS011;69869;48.036;15.780;2023-06-10T03:02:24;5.22;;;2.95;;
80539;SDS011;69869;48.036;15.780;2023-06-10T03:04:56;5.03;;;2.55;;
80539;SDS011;69869;48.036;15.780;2023-06-10T03:07:22;4.07;;;2.60;;
80539;SDS011;69869;48.036;15.780;2023-06-10T03:09:48;4.00;;;2.42;;
80539;SDS011;69869;48.036;15.780;2023-06-10T03:12:14;5.75;;;2.70;;
80539;SDS011;69869;48.036;15.780;2023-06-10T03:14:40;3.88;;;2.63;;
80539;SDS011;69869;48.036;15.780;2023-06-10T03:17:06;3.33;;;2.70;;
80539;SDS011;69869;48.036;15.780;2023-06-10T03:19:33;2.78;;;2.47;;
80539;SDS011;69869;48.036;15.780;2023-06-10T03:22:09;2.83;;;2.60;;
80539;SDS011;69869;48.036;15.780;2023-06-10T03:24:36;2.92;;;2.60;;
80539;SDS011;69869;48.036;15.780;2023-06-10T03:27:05;3.00;;;2.67;;
80539;SDS011;69869;48.036;15.780;2023-06-10T03:29:34;5.75;;;2.70;;
80539;SDS011;69869;48.036;15.780;2023-06-10T03:32:01;3.92;;;2.70;;
80539;SDS011;69869;48.036;15.780;2023-06-10T03:34:26;4.30;;;2.70;;
80539;SDS011;69869;48.036;15.780;2023-06-10T03:36:52;3.80;;;2.60;;
80539;SDS011;69869;48.036;15.780;2023-06-10T03:39:18;3.13;;;2.75;;
80539;SDS011;69869;48.036;15.780;2023-06-10T03:41:43;2.78;;;2.58;;
80539;SDS011;69869;48.036;15.780;2023-06-10T03:44:09;3.05;;;2.60;;
80539;SDS011;69869;48.036;15.780;2023-06-10T03:46:35;3.85;;;2.72;;
80539;SDS011;69869;48.036;15.780;2023-06-10T03:49:00;2.90;;;2.70;;
80539;SDS011;69869;48.036;15.780;2023-06-10T03:51:26;3.25;;;2.67;;
80539;SDS011;69869;48.036;15.780;2023-06-10T03:53:52;2.70;;;2.50;;
80539;SDS011;69869;48.036;15.780;2023-06-10T03:56:18;2.95;;;2.70;;
80539;SDS011;69869;48.036;15.780;2023-06-10T03:58:43;2.83;;;2.63;;
80539;SDS011;69869;48.036;15.780;2023-06-10T04:01:09;3.05;;;2.72;;
80539;SDS011;69869;48.036;15.780;2023-06-10T04:03:35;3.25;;;2.60;;
80539;SDS011;69869;48.036;15.780;2023-06-10T04:06:01;3.08;;;2.80;;
80539;SDS011;69869;48.036;15.780;2023-06-10T04:08:27;2.88;;;2.67;;
80539;SDS011;69869;48.036;15.780;2023-06-10T04:10:54;3.60;;;2.75;;
80539;SDS011;69869;48.036;15.780;2023-06-10T04:13:19;2.88;;;2.50;;
80539;SDS011;69869;48.036;15.780;2023-06-10T04:15:45;3.83;;;2.90;;
80539;SDS011;69869;48.036;15.780;2023-06-10T04:18:11;3.20;;;2.90;;
80539;SDS011;69869;48.036;15.780;2023-06-10T04:20:36;4.07;;;3.03;;
80539;SDS011;69869;48.036;15.780;2023-06-10T04:23:02;3.35;;;2.70;;
80539;SDS011;69869;48.036;15.780;2023-06-10T04:25:28;2.80;;;2.60;;
80539;SDS011;69869;48.036;15.780;2023-06-10T04:27:54;2.78;;;2.58;;
80539;SDS011;69869;48.036;15.780;2023-06-10T04:30:20;4.18;;;2.65;;
80539;SDS011;69869;48.036;15.780;2023-06-10T04:32:45;4.13;;;2.83;;
80539;SDS011;69869;48.036;15.780;2023-06-10T04:35:12;8.75;;;2.92;;
80539;SDS011;69869;48.036;15.780;2023-06-10T04:37:39;4.90;;;2.90;;
80539;SDS011;69869;48.036;15.780;2023-06-10T04:40:05;2.90;;;2.60;;
80539;SDS011;69869;48.036;15.780;2023-06-10T04:42:31;4.72;;;2.75;;
80539;SDS011;69869;48.036;15.780;2023-06-10T04:44:57;6.63;;;2.85;;
80539;SDS011;69869;48.036;15.780;2023-06-10T04:47:22;5.05;;;3.00;;
80539;SDS011;69869;48.036;15.780;2023-06-10T04:49:48;3.45;;;2.90;;
80539;SDS011;69869;48.036;15.780;2023-06-10T04:52:14;5.68;;;2.78;;
80539;SDS011;69869;48.036;15.780;2023-06-10T04:54:39;6.55;;;2.65;;
80539;SDS011;69869;48.036;15.780;2023-06-10T04:57:06;5.70;;;2.67;;
80539;SDS011;69869;48.036;15.780;2023-06-10T04:59:33;4.20;;;2.80;;
80539;SDS011;69869;48.036;15.780;2023-06-10T05:02:02;5.13;;;2.75;;
80539;SDS011;69869;48.036;15.780;2023-06-10T05:04:28;4.68;;;2.70;;
80539;SDS011;69869;48.036;15.780;2023-06-10T05:06:54;5.63;;;2.90;;
80539;SDS011;69869;48.036;15.780;2023-06-10T05:09:20;4.80;;;3.03;;
80539;SDS011;69869;48.036;15.780;2023-06-10T05:11:46;4.82;;;3.10;;
80539;SDS011;69869;48.036;15.780;2023-06-10T05:14:12;4.22;;;2.80;;
80539;SDS011;69869;48.036;15.780;2023-06-10T05:16:37;3.75;;;2.80;;
80539;SDS011;69869;48.036;15.780;2023-06-10T05:19:03;4.38;;;2.88;;
80539;SDS011;69869;48.036;15.780;2023-06-10T05:21:29;3.55;;;2.90;;
80539;SDS011;69869;48.036;15.780;2023-06-10T05:23:55;4.80;;;2.63;;
80539;SDS011;69869;48.036;15.780;2023-06-10T05:26:21;4.50;;;2.78;;
80539;SDS011;69869;48.036;15.780;2023-06-10T05:28:47;3.58;;;2.83;;
80539;SDS011;69869;48.036;15.780;2023-06-10T05:31:13;5.00;;;2.90;;
80539;SDS011;69869;48.036;15.780;2023-06-10T05:33:39;3.05;;;2.85;;
80539;SDS011;69869;48.036;15.780;2023-06-10T05:36:05;4.85;;;2.75;;
80539;SDS011;69869;48.036;15.780;2023-06-10T05:38:30;7.15;;;2.90;;
80539;SDS011;69869;48.036;15.780;2023-06-10T05:40:56;4.00;;;2.97;;
80539;SDS011;69869;48.036;15.780;2023-06-10T05:43:23;4.35;;;3.03;;
80539;SDS011;69869;48.036;15.780;2023-06-10T05:45:49;4.03;;;2.88;;
80539;SDS011;69869;48.036;15.780;2023-06-10T05:48:15;6.15;;;3.10;;
80539;SDS011;69869;48.036;15.780;2023-06-10T05:50:41;3.40;;;3.10;;
80539;SDS011;69869;48.036;15.780;2023-06-10T05:53:09;5.43;;;3.03;;
80539;SDS011;69869;48.036;15.780;2023-06-10T05:55:41;4.35;;;2.92;;
80539;SDS011;69869;48.036;15.780;2023-06-10T05:58:09;6.07;;;3.03;;
80539;SDS011;69869;48.036;15.780;2023-06-10T06:00:37;2.97;;;2.78;;
80539;SDS011;69869;48.036;15.780;2023-06-10T06:03:03;3.00;;;2.80;;
80539;SDS011;69869;48.036;15.780;2023-06-10T06:05:30;5.43;;;3.28;;
80539;SDS011;69869;48.036;15.780;2023-06-10T06:08:00;3.88;;;2.75;;
80539;SDS011;69869;48.036;15.780;2023-06-10T06:10:29;3.97;;;2.70;;
80539;SDS011;69869;48.036;15.780;2023-06-10T06:12:55;3.03;;;2.83;;
80539;SDS011;69869;48.036;15.780;2023-06-10T06:15:21;3.08;;;2.88;;
80539;SDS011;69869;48.036;15.780;2023-06-10T06:17:46;3.60;;;2.85;;
80539;SDS011;69869;48.036;15.780;2023-06-10T06:20:12;3.17;;;2.97;;
80539;SDS011;69869;48.036;15.780;2023-06-10T06:22:38;2.95;;;2.70;;
80539;SDS011;69869;48.036;15.780;2023-06-10T06:25:04;4.45;;;2.85;;
80539;SDS011;69869;48.036;15.780;2023-06-10T06:27:30;3.92;;;3.10;;
80539;SDS011;69869;48.036;15.780;2023-06-10T06:29:56;4.70;;;2.97;;
80539;SDS011;69869;48.036;15.780;2023-06-10T06:32:22;10.00;;;3.13;;
80539;SDS011;69869;48.036;15.780;2023-06-10T06:34:49;5.28;;;2.60;;
80539;SDS011;69869;48.036;15.780;2023-06-10T06:37:19;15.80;;;3.50;;
80539;SDS011;69869;48.036;15.780;2023-06-10T06:39:51;5.13;;;3.08;;
80539;SDS011;69869;48.036;15.780;2023-06-10T06:42:18;7.30;;;3.00;;
80539;SDS011;69869;48.036;15.780;2023-06-10T06:44:44;5.68;;;3.15;;
80539;SDS011;69869;48.036;15.780;2023-06-10T06:47:11;6.28;;;2.88;;
80539;SDS011;69869;48.036;15.780;2023-06-10T06:49:37;5.88;;;3.20;;
80539;SDS011;69869;48.036;15.780;2023-06-10T06:52:03;8.75;;;2.95;;
80539;SDS011;69869;48.036;15.780;2023-06-10T06:54:29;7.18;;;3.15;;
80539;SDS011;69869;48.036;15.780;2023-06-10T06:56:55;6.45;;;3.00;;
80539;SDS011;69869;48.036;15.780;2023-06-10T06:59:20;3.45;;;3.05;;
80539;SDS011;69869;48.036;15.780;2023-06-10T07:01:46;6.43;;;3.00;;
80539;SDS011;69869;48.036;15.780;2023-06-10T07:04:13;4.47;;;2.97;;
80539;SDS011;69869;48.036;15.780;2023-06-10T07:06:39;4.55;;;3.53;;
80539;SDS011;69869;48.036;15.780;2023-06-10T07:09:05;3.50;;;3.20;;
80539;SDS011;69869;48.036;15.780;2023-06-10T07:11:32;3.58;;;3.22;;
80539;SDS011;69869;48.036;15.780;2023-06-10T07:13:58;5.43;;;3.42;;
80539;SDS011;69869;48.036;15.780;2023-06-10T07:16:23;3.80;;;3.45;;
80539;SDS011;69869;48.036;15.780;2023-06-10T07:18:49;3.72;;;3.40;;
80539;SDS011;69869;48.036;15.780;2023-06-10T07:21:14;3.72;;;3.30;;
80539;SDS011;69869;48.036;15.780;2023-06-10T07:23:43;3.45;;;3.25;;
80539;SDS011;69869;48.036;15.780;2023-06-10T07:26:10;5.18;;;3.95;;
80539;SDS011;69869;48.036;15.780;2023-06-10T07:28:38;6.53;;;4.30;;
80539;SDS011;69869;48.036;15.780;2023-06-10T07:31:07;7.75;;;6.32;;
80539;SDS011;69869;48.036;15.780;2023-06-10T07:33:33;7.63;;;6.70;;
80539;SDS011;69869;48.036;15.780;2023-06-10T07:35:59;7.75;;;6.07;;
80539;SDS011;69869;48.036;15.780;2023-06-10T07:38:25;7.55;;;6.28;;
80539;SDS011;69869;48.036;15.780;2023-06-10T07:40:51;7.55;;;6.43;;
80539;SDS011;69869;48.036;15.780;2023-06-10T07:43:16;17.10;;;6.80;;
80539;SDS011;69869;48.036;15.780;2023-06-10T07:45:42;8.82;;;6.70;;
80539;SDS011;69869;48.036;15.780;2023-06-10T07:48:08;7.68;;;6.35;;
80539;SDS011;69869;48.036;15.780;2023-06-10T07:50:34;7.13;;;6.30;;
80539;SDS011;69869;48.036;15.780;2023-06-10T07:53:00;7.60;;;6.72;;
80539;SDS011;69869;48.036;15.780;2023-06-10T07:55:26;10.18;;;7.00;;
80539;SDS011;69869;48.036;15.780;2023-06-10T07:57:52;8.52;;;6.90;;
80539;SDS011;69869;48.036;15.780;2023-06-10T08:00:18;8.48;;;7.38;;
80539;SDS011;69869;48.036;15.780;2023-06-10T08:02:44;10.00;;;7.47;;
80539;SDS011;69869;48.036;15.780;2023-06-10T08:05:10;10.93;;;7.38;;
80539;SDS011;69869;48.036;15.780;2023-06-10T08:07:36;9.15;;;7.43;;
80539;SDS011;69869;48.036;15.780;2023-06-10T08:10:02;11.18;;;8.20;;
80539;SDS011;69869;48.036;15.780;2023-06-10T08:12:29;9.32;;;8.00;;
80539;SDS011;69869;48.036;15.780;2023-06-10T08:14:54;10.07;;;8.05;;
80539;SDS011;69869;48.036;15.780;2023-06-10T08:17:20;9.85;;;8.10;;
80539;SDS011;69869;48.036;15.780;2023-06-10T08:19:46;8.77;;;7.88;;
80539;SDS011;69869;48.036;15.780;2023-06-10T08:22:12;9.88;;;8.30;;
80539;SDS011;69869;48.036;15.780;2023-06-10T08:24:37;9.60;;;8.10;;
80539;SDS011;69869;48.036;15.780;2023-06-10T08:27:03;9.13;;;8.13;;
80539;SDS011;69869;48.036;15.780;2023-06-10T08:29:30;12.45;;;8.95;;
80539;SDS011;69869;48.036;15.780;2023-06-10T08:31:57;13.45;;;9.13;;
80539;SDS011;69869;48.036;15.780;2023-06-10T08:34:23;10.82;;;8.50;;
80539;SDS011;69869;48.036;15.780;2023-06-10T08:36:48;9.73;;;8.68;;
80539;SDS011;69869;48.036;15.780;2023-06-10T08:39:18;11.80;;;9.43;;
80539;SDS011;69869;48.036;15.780;2023-06-10T08:41:46;14.48;;;10.85;;
80539;SDS011;69869;48.036;15.780;2023-06-10T08:44:43;14.63;;;11.68;;
80539;SDS011;69869;48.036;15.780;2023-06-10T08:47:13;17.15;;;13.45;;
80539;SDS011;69869;48.036;15.780;2023-06-10T08:49:43;15.25;;;12.75;;
80539;SDS011;69869;48.036;15.780;2023-06-10T08:52:19;16.80;;;12.75;;
80539;SDS011;69869;48.036;15.780;2023-06-10T08:54:52;18.15;;;13.77;;
80539;SDS011;69869;48.036;15.780;2023-06-10T08:57:25;19.67;;;14.23;;
80539;SDS011;69869;48.036;15.780;2023-06-10T08:59:53;32.17;;;13.82;;
80539;SDS011;69869;48.036;15.780;2023-06-10T09:02:21;24.38;;;10.82;;
80539;SDS011;69869;48.036;15.780;2023-06-10T09:04:47;17.77;;;11.20;;
80539;SDS011;69869;48.036;15.780;2023-06-10T09:07:15;19.75;;;11.32;;
80539;SDS011;69869;48.036;15.780;2023-06-10T09:09:42;18.42;;;12.07;;
80539;SDS011;69869;48.036;15.780;2023-06-10T09:12:09;18.83;;;11.18;;
80539;SDS011;69869;48.036;15.780;2023-06-10T09:14:35;18.38;;;11.20;;
80539;SDS011;69869;48.036;15.780;2023-06-10T09:17:02;16.17;;;10.13;;
80539;SDS011;69869;48.036;15.780;2023-06-10T09:19:28;16.50;;;9.43;;
80539;SDS011;69869;48.036;15.780;2023-06-10T09:21:54;17.58;;;10.38;;
80539;SDS011;69869;48.036;15.780;2023-06-10T09:24:23;24.95;;;10.07;;
80539;SDS011;69869;48.036;15.780;2023-06-10T09:26:49;20.33;;;9.98;;
80539;SDS011;69869;48.036;15.780;2023-06-10T09:29:15;31.83;;;11.35;;
80539;SDS011;69869;48.036;15.780;2023-06-10T09:31:41;24.27;;;10.07;;
80539;SDS011;69869;48.036;15.780;2023-06-10T09:34:09;23.38;;;10.27;;
80539;SDS011;69869;48.036;15.780;2023-06-10T09:36:37;19.35;;;9.88;;
80539;SDS011;69869;48.036;15.780;2023-06-10T09:39:03;19.23;;;10.13;;
80539;SDS011;69869;48.036;15.780;2023-06-10T09:41:33;18.02;;;10.18;;
80539;SDS011;69869;48.036;15.780;2023-06-10T09:44:00;20.83;;;10.07;;
80539;SDS011;69869;48.036;15.780;2023-06-10T09:46:29;23.75;;;11.30;;
80539;SDS011;69869;48.036;15.780;2023-06-10T09:48:58;23.58;;;11.00;;
80539;SDS011;69869;48.036;15.780;2023-06-10T09:51:24;17.52;;;10.90;;
80539;SDS011;69869;48.036;15.780;2023-06-10T09:53:50;16.50;;;10.40;;
80539;SDS011;69869;48.036;15.780;2023-06-10T09:56:17;20.80;;;10.75;;
80539;SDS011;69869;48.036;15.780;2023-06-10T09:58:44;19.48;;;10.25;;
80539;SDS011;69869;48.036;15.780;2023-06-10T10:01:11;15.85;;;10.20;;
80539;SDS011;69869;48.036;15.780;2023-06-10T10:03:45;28.45;;;10.13;;
80539;SDS011;69869;48.036;15.780;2023-06-10T10:06:12;19.35;;;10.25;;
80539;SDS011;69869;48.036;15.780;2023-06-10T10:08:39;26.55;;;9.93;;
80539;SDS011;69869;48.036;15.780;2023-06-10T10:11:05;59.33;;;11.27;;
80539;SDS011;69869;48.036;15.780;2023-06-10T10:13:32;46.85;;;10.95;;
80539;SDS011;69869;48.036;15.780;2023-06-10T10:16:00;46.90;;;10.73;;
80539;SDS011;69869;48.036;15.780;2023-06-10T10:18:29;96.20;;;11.73;;
80539;SDS011;69869;48.036;15.780;2023-06-10T10:20:57;71.32;;;11.75;;
80539;SDS011;69869;48.036;15.780;2023-06-10T10:23:34;58.17;;;10.80;;
